createdAt,value
2022-08-02T00:00:50.852Z,90.96
2022-08-02T00:01:50.867Z,91.02
2022-08-02T00:02:50.770Z,90.15
2022-08-02T00:03:50.735Z,90.96
2022-08-02T00:04:50.694Z,90.00
2022-08-02T00:05:52.939Z,90.58
2022-08-02T00:06:50.611Z,90.19
2022-08-02T00:07:50.573Z,90.77
2022-08-02T00:08:50.532Z,90.77
2022-08-02T00:09:50.493Z,90.87
2022-08-02T00:10:50.459Z,90.63
2022-08-02T00:11:50.439Z,90.53
2022-08-02T00:12:50.374Z,90.63
2022-08-02T00:13:50.333Z,90.92
2022-08-02T00:14:50.294Z,91.20
2022-08-02T00:15:50.254Z,90.53
2022-08-02T00:16:50.216Z,90.72
2022-08-02T00:17:50.195Z,90.53
2022-08-02T00:18:50.135Z,90.72
2022-08-02T00:19:50.097Z,90.53
2022-08-02T00:20:50.056Z,90.63
2022-08-02T00:21:50.017Z,90.53
2022-08-02T00:22:49.979Z,90.72
2022-08-02T00:24:27.577Z,90.05
2022-08-02T00:24:49.896Z,91.02
2022-08-02T00:25:55.166Z,90.44
2022-08-02T00:26:49.820Z,90.63
2022-08-02T00:27:49.779Z,90.15
2022-08-02T00:28:49.736Z,89.95
2022-08-02T00:29:52.560Z,90.44
2022-08-02T00:30:49.658Z,91.11
2022-08-02T00:31:49.621Z,91.20
2022-08-02T00:32:49.582Z,90.92
2022-08-02T00:34:26.754Z,91.50
2022-08-02T00:34:49.501Z,91.20
2022-08-02T00:35:49.466Z,91.45
2022-08-02T00:36:49.425Z,92.03
2022-08-02T00:37:49.384Z,92.41
2022-08-02T00:38:49.337Z,92.41
2022-08-02T00:39:49.322Z,92.80
2022-08-02T00:40:49.262Z,93.28
2022-08-02T00:41:49.221Z,93.28
2022-08-02T00:42:49.184Z,93.86
2022-08-02T00:43:49.146Z,94.73
2022-08-02T00:44:49.107Z,94.54
2022-08-02T00:46:02.314Z,94.34
2022-08-02T00:46:49.027Z,94.54
2022-08-02T00:47:48.998Z,94.63
2022-08-02T00:48:49.817Z,94.73
2022-08-02T00:49:48.902Z,94.63
2022-08-02T00:50:48.868Z,94.68
2022-08-02T00:51:48.824Z,94.78
2022-08-02T00:52:48.785Z,94.49
2022-08-02T00:53:48.741Z,94.78
2022-08-02T00:54:48.714Z,94.10
2022-08-02T00:55:48.663Z,94.59
2022-08-02T00:56:49.664Z,94.29
2022-08-02T00:57:48.586Z,94.49
2022-08-02T00:58:48.569Z,94.29
2022-08-02T00:59:48.502Z,94.29
2022-08-02T01:00:48.459Z,94.29
2022-08-02T01:01:57.952Z,94.29
2022-08-02T01:02:48.382Z,94.59
2022-08-02T01:03:48.341Z,94.39
2022-08-02T01:04:48.314Z,94.39
2022-08-02T01:06:10.249Z,94.39
2022-08-02T01:06:48.231Z,94.59
2022-08-02T01:07:48.182Z,94.59
2022-08-02T01:08:48.141Z,94.39
2022-08-02T01:09:48.104Z,94.68
2022-08-02T01:10:48.061Z,94.29
2022-08-02T01:11:48.039Z,93.77
2022-08-02T01:12:47.980Z,93.67
2022-08-02T01:13:47.941Z,93.91
2022-08-02T01:14:47.899Z,93.81
2022-08-02T01:15:47.859Z,93.81
2022-08-02T01:16:47.820Z,94.64
2022-08-02T01:17:47.915Z,94.68
2022-08-02T01:18:47.746Z,93.57
2022-08-02T01:19:47.702Z,94.25
2022-08-02T01:20:47.662Z,94.44
2022-08-02T01:21:47.619Z,94.25
2022-08-02T01:23:03.193Z,94.54
2022-08-02T01:23:47.554Z,94.54
2022-08-02T01:24:47.516Z,94.44
2022-08-02T01:25:47.459Z,95.12
2022-08-02T01:26:47.420Z,95.02
2022-08-02T01:27:47.379Z,94.54
2022-08-02T01:28:47.354Z,95.12
2022-08-02T01:29:47.325Z,94.82
2022-08-02T01:30:47.254Z,94.92
2022-08-02T01:31:47.223Z,95.50
2022-08-02T01:32:47.178Z,95.50
2022-08-02T01:33:47.138Z,95.60
2022-08-02T01:34:47.099Z,95.79
2022-08-02T01:35:51.030Z,95.60
2022-08-02T01:36:47.014Z,95.50
2022-08-02T01:37:46.977Z,95.50
2022-08-02T01:38:46.935Z,95.40
2022-08-02T01:39:46.896Z,95.40
2022-08-02T01:40:46.872Z,95.36
2022-08-02T01:41:46.817Z,95.40
2022-08-02T01:42:46.777Z,95.50
2022-08-02T01:43:46.741Z,95.60
2022-08-02T01:44:46.695Z,95.50
2022-08-02T01:45:46.672Z,95.79
2022-08-02T01:46:46.620Z,95.50
2022-08-02T01:47:46.578Z,95.60
2022-08-02T01:48:46.540Z,95.31
2022-08-02T01:49:46.499Z,95.60
2022-08-02T01:50:46.460Z,95.50
2022-08-02T01:51:46.448Z,95.50
2022-08-02T01:52:53.520Z,95.31
2022-08-02T01:53:46.334Z,95.50
2022-08-02T01:54:46.297Z,95.50
2022-08-02T01:55:58.304Z,95.79
2022-08-02T01:56:46.212Z,95.31
2022-08-02T01:57:46.186Z,95.45
2022-08-02T01:58:46.132Z,95.26
2022-08-02T01:59:46.092Z,95.36
2022-08-02T02:00:46.058Z,95.94
2022-08-02T02:01:46.101Z,95.45
2022-08-02T02:02:45.970Z,96.03
2022-08-02T02:03:45.947Z,95.65
2022-08-02T02:04:45.891Z,95.45
2022-08-02T02:05:45.852Z,95.74
2022-08-02T02:06:45.808Z,95.84
2022-08-02T02:07:45.769Z,95.74
2022-08-02T02:08:45.738Z,95.84
2022-08-02T02:09:50.500Z,95.65
2022-08-02T02:10:45.648Z,95.65
2022-08-02T02:12:11.985Z,95.84
2022-08-02T02:12:45.566Z,95.84
2022-08-02T02:13:45.766Z,96.32
2022-08-02T02:14:51.432Z,95.74
2022-08-02T02:15:45.447Z,96.12
2022-08-02T02:16:45.405Z,95.74
2022-08-02T02:18:11.342Z,95.74
2022-08-02T02:18:45.327Z,96.12
2022-08-02T02:19:45.483Z,95.94
2022-08-02T02:20:45.244Z,96.22
2022-08-02T02:21:45.212Z,96.12
2022-08-02T02:22:45.164Z,95.55
2022-08-02T02:23:45.129Z,95.94
2022-08-02T02:24:45.085Z,95.74
2022-08-02T02:25:46.874Z,96.42
2022-08-02T02:26:50.702Z,96.32
2022-08-02T02:27:44.962Z,95.94
2022-08-02T02:28:44.921Z,95.94
2022-08-02T02:29:44.880Z,95.74
2022-08-02T02:30:44.852Z,96.03
2022-08-02T02:31:44.804Z,95.94
2022-08-02T02:32:44.765Z,96.03
2022-08-02T02:33:44.719Z,95.74
2022-08-02T02:34:44.684Z,96.03
2022-08-02T02:35:44.652Z,95.70
2022-08-02T02:36:44.621Z,95.84
2022-08-02T02:37:44.560Z,96.32
2022-08-02T02:38:44.523Z,95.65
2022-08-02T02:39:44.476Z,96.03
2022-08-02T02:40:44.435Z,95.65
2022-08-02T02:41:44.396Z,96.22
2022-08-02T02:42:49.166Z,95.74
2022-08-02T02:43:44.319Z,95.40
2022-08-02T02:44:44.275Z,95.21
2022-08-02T02:45:44.233Z,95.50
2022-08-02T02:46:44.197Z,95.79
2022-08-02T02:47:44.164Z,95.79
2022-08-02T02:48:44.113Z,96.08
2022-08-02T02:49:44.080Z,96.47
2022-08-02T02:50:44.036Z,96.27
2022-08-02T02:51:43.992Z,96.94
2022-08-02T02:52:43.974Z,96.85
2022-08-02T02:54:33.117Z,96.75
2022-08-02T02:54:43.870Z,96.94
2022-08-02T02:56:01.611Z,96.75
2022-08-02T02:56:43.785Z,97.24
2022-08-02T02:57:43.746Z,96.99
2022-08-02T02:58:43.733Z,96.51
2022-08-02T02:59:49.810Z,96.80
2022-08-02T03:00:43.671Z,96.90
2022-08-02T03:01:57.256Z,97.57
2022-08-02T03:02:43.546Z,98.05
2022-08-02T03:03:43.508Z,98.05
2022-08-02T03:04:56.192Z,98.05
2022-08-02T03:05:43.425Z,97.67
2022-08-02T03:06:43.382Z,97.86
2022-08-02T03:07:43.341Z,97.67
2022-08-02T03:08:43.306Z,97.86
2022-08-02T03:09:43.273Z,97.76
2022-08-02T03:10:43.220Z,97.67
2022-08-02T03:11:43.181Z,98.05
2022-08-02T03:12:43.137Z,97.86
2022-08-02T03:13:43.097Z,97.67
2022-08-02T03:14:43.063Z,97.28
2022-08-02T03:15:43.028Z,97.47
2022-08-02T03:16:42.978Z,97.57
2022-08-02T03:17:42.936Z,98.05
2022-08-02T03:18:42.894Z,97.67
2022-08-02T03:19:42.856Z,97.96
2022-08-02T03:20:42.828Z,97.67
2022-08-02T03:21:42.771Z,97.57
2022-08-02T03:22:42.738Z,97.47
2022-08-02T03:23:42.687Z,97.28
2022-08-02T03:24:42.649Z,97.67
2022-08-02T03:25:42.610Z,97.96
2022-08-02T03:26:42.687Z,97.57
2022-08-02T03:27:42.524Z,97.28
2022-08-02T03:28:42.484Z,97.67
2022-08-02T03:29:42.444Z,97.28
2022-08-02T03:30:42.404Z,97.76
2022-08-02T03:31:42.368Z,97.76
2022-08-02T03:32:42.338Z,98.05
2022-08-02T03:33:42.282Z,97.86
2022-08-02T03:34:42.241Z,98.05
2022-08-02T03:35:42.203Z,97.67
2022-08-02T03:36:42.158Z,97.76
2022-08-02T03:37:42.116Z,97.67
2022-08-02T03:38:42.092Z,97.57
2022-08-02T03:39:51.076Z,97.47
2022-08-02T03:40:41.994Z,97.86
2022-08-02T03:41:41.962Z,97.76
2022-08-02T03:42:41.914Z,97.86
2022-08-02T03:43:41.888Z,96.90
2022-08-02T03:44:41.836Z,96.32
2022-08-02T03:45:41.795Z,96.51
2022-08-02T03:46:41.757Z,96.85
2022-08-02T03:47:41.710Z,96.51
2022-08-02T03:48:41.673Z,96.66
2022-08-02T03:49:41.641Z,96.85
2022-08-02T03:50:41.593Z,96.66
2022-08-02T03:51:41.548Z,96.56
2022-08-02T03:52:41.507Z,97.52
2022-08-02T03:53:41.464Z,97.62
2022-08-02T03:54:45.338Z,97.52
2022-08-02T03:55:41.529Z,97.81
2022-08-02T03:56:41.346Z,98.00
2022-08-02T03:57:41.300Z,98.48
2022-08-02T03:58:43.606Z,98.77
2022-08-02T03:59:41.221Z,98.86
2022-08-02T04:00:41.224Z,98.48
2022-08-02T04:01:41.162Z,98.86
2022-08-02T04:02:41.102Z,98.29
2022-08-02T04:03:41.058Z,98.48
2022-08-02T04:04:41.013Z,98.77
2022-08-02T04:06:03.408Z,98.58
2022-08-02T04:06:41.655Z,98.86
2022-08-02T04:08:01.261Z,98.48
2022-08-02T04:08:40.853Z,98.86
2022-08-02T04:09:40.829Z,99.44
2022-08-02T04:10:40.769Z,98.77
2022-08-02T04:11:40.729Z,98.86
2022-08-02T04:12:40.693Z,98.48
2022-08-02T04:13:40.661Z,98.68
2022-08-02T04:14:40.606Z,98.48
2022-08-02T04:15:40.568Z,98.48
2022-08-02T04:16:40.524Z,98.68
2022-08-02T04:17:40.510Z,98.53
2022-08-02T04:18:40.443Z,98.48
2022-08-02T04:19:40.402Z,98.48
2022-08-02T04:20:40.364Z,98.86
2022-08-02T04:21:48.773Z,98.72
2022-08-02T04:22:40.284Z,98.86
2022-08-02T04:23:40.254Z,98.34
2022-08-02T04:24:40.197Z,98.24
2022-08-02T04:25:41.341Z,98.63
2022-08-02T04:26:40.114Z,98.72
2022-08-02T04:28:15.974Z,98.72
2022-08-02T04:28:40.034Z,98.24
2022-08-02T04:29:43.861Z,97.76
2022-08-02T04:30:39.956Z,97.47
2022-08-02T04:31:39.917Z,97.09
2022-08-02T04:32:39.875Z,96.94
2022-08-02T04:33:39.829Z,96.90
2022-08-02T04:34:39.812Z,96.99
2022-08-02T04:35:39.750Z,96.85
2022-08-02T04:36:39.711Z,97.52
2022-08-02T04:38:08.971Z,98.00
2022-08-02T04:38:39.622Z,97.91
2022-08-02T04:39:39.587Z,97.52
2022-08-02T04:40:39.576Z,98.00
2022-08-02T04:41:41.062Z,97.81
2022-08-02T04:42:39.463Z,97.96
2022-08-02T04:43:39.426Z,97.86
2022-08-02T04:44:39.378Z,97.96
2022-08-02T04:45:39.337Z,98.05
2022-08-02T04:46:39.312Z,98.05
2022-08-02T04:48:02.376Z,97.76
2022-08-02T04:48:39.219Z,98.05
2022-08-02T04:49:39.248Z,97.96
2022-08-02T04:50:39.134Z,98.05
2022-08-02T04:51:39.104Z,97.96
2022-08-02T04:52:41.699Z,97.96
2022-08-02T04:53:39.011Z,97.47
2022-08-02T04:54:38.973Z,97.47
2022-08-02T04:55:38.928Z,97.42
2022-08-02T04:56:38.891Z,97.71
2022-08-02T04:57:38.847Z,97.52
2022-08-02T04:58:40.576Z,97.14
2022-08-02T04:59:38.767Z,96.56
2022-08-02T05:00:38.834Z,96.94
2022-08-02T05:01:38.688Z,96.27
2022-08-02T05:02:38.652Z,96.85
2022-08-02T05:03:38.610Z,96.51
2022-08-02T05:04:38.598Z,95.84
2022-08-02T05:05:38.523Z,95.84
2022-08-02T05:06:38.489Z,96.42
2022-08-02T05:07:38.444Z,95.45
2022-08-02T05:08:38.402Z,95.74
2022-08-02T05:09:38.361Z,95.55
2022-08-02T05:10:38.334Z,95.26
2022-08-02T05:11:38.294Z,95.45
2022-08-02T05:12:38.253Z,95.55
2022-08-02T05:13:58.833Z,95.17
2022-08-02T05:14:38.161Z,95.26
2022-08-02T05:15:38.119Z,94.97
2022-08-02T05:16:38.075Z,94.78
2022-08-02T05:17:38.050Z,94.59
2022-08-02T05:18:37.998Z,94.59
2022-08-02T05:19:37.986Z,94.10
2022-08-02T05:20:37.919Z,94.49
2022-08-02T05:21:37.876Z,94.20
2022-08-02T05:22:37.843Z,94.40
2022-08-02T05:23:37.795Z,94.20
2022-08-02T05:24:37.756Z,94.20
2022-08-02T05:25:37.750Z,94.20
2022-08-02T05:26:37.675Z,94.25
2022-08-02T05:27:37.632Z,94.34
2022-08-02T05:28:37.592Z,94.54
2022-08-02T05:29:37.555Z,94.44
2022-08-02T05:30:37.512Z,94.25
2022-08-02T05:31:37.497Z,94.44
2022-08-02T05:32:37.431Z,93.77
2022-08-02T05:33:37.390Z,93.38
2022-08-02T05:34:37.374Z,93.67
2022-08-02T05:35:37.320Z,93.77
2022-08-02T05:36:37.272Z,93.67
2022-08-02T05:37:37.227Z,93.87
2022-08-02T05:38:37.597Z,93.81
2022-08-02T05:39:37.152Z,93.72
2022-08-02T05:40:37.109Z,93.72
2022-08-02T05:41:37.081Z,93.91
2022-08-02T05:42:37.033Z,93.62
2022-08-02T05:43:36.991Z,94.01
2022-08-02T05:44:36.952Z,93.72
2022-08-02T05:45:36.911Z,93.62
2022-08-02T05:46:36.900Z,93.57
2022-08-02T05:47:36.830Z,93.09
2022-08-02T05:48:36.793Z,92.51
2022-08-02T05:49:36.793Z,92.51
2022-08-02T05:50:36.710Z,92.22
2022-08-02T05:51:36.673Z,92.13
2022-08-02T05:52:36.643Z,91.83
2022-08-02T05:53:36.589Z,91.50
2022-08-02T05:54:39.321Z,90.88
2022-08-02T05:55:36.514Z,91.26
2022-08-02T05:56:36.485Z,90.68
2022-08-02T05:57:43.240Z,90.72
2022-08-02T05:58:36.388Z,90.24
2022-08-02T05:59:36.366Z,90.44
2022-08-02T06:03:49.911Z,89.81
2022-08-02T06:04:47.492Z,90.20
2022-08-02T06:05:47.679Z,90.92
2022-08-02T06:06:47.959Z,90.88
2022-08-02T06:07:48.709Z,91.45
2022-08-02T06:08:48.003Z,91.64
2022-08-02T06:09:47.274Z,91.45
2022-08-02T06:10:47.273Z,91.69
2022-08-02T06:12:01.802Z,91.50
2022-08-02T06:12:47.160Z,90.53
2022-08-02T06:13:47.326Z,90.72
2022-08-02T06:14:48.437Z,91.11
2022-08-02T06:15:53.027Z,90.82
2022-08-02T06:16:47.139Z,90.92
2022-08-02T06:17:47.213Z,91.11
2022-08-02T06:18:47.156Z,90.15
2022-08-02T06:19:51.551Z,90.29
2022-08-02T06:20:46.963Z,90.38
2022-08-02T06:22:30.657Z,90.38
2022-08-02T06:22:47.017Z,89.51
2022-08-02T06:23:58.796Z,89.42
2022-08-02T06:24:46.678Z,89.61
2022-08-02T06:25:50.940Z,89.42
2022-08-02T06:26:46.801Z,89.51
2022-08-02T06:27:46.557Z,88.75
2022-08-02T06:28:46.815Z,89.71
2022-08-02T06:29:46.495Z,89.42
2022-08-02T06:30:46.626Z,89.47
2022-08-02T06:31:46.398Z,89.81
2022-08-02T06:32:46.361Z,89.42
2022-08-02T06:33:46.446Z,89.27
2022-08-02T06:34:46.281Z,89.27
2022-08-02T06:35:46.461Z,88.89
2022-08-02T06:36:46.203Z,89.17
2022-08-02T06:37:46.270Z,88.50
2022-08-02T06:38:50.911Z,88.50
2022-08-02T06:39:46.487Z,88.31
2022-08-02T06:40:46.041Z,88.31
2022-08-02T06:41:46.297Z,88.31
2022-08-02T06:42:45.961Z,88.31
2022-08-02T06:43:45.923Z,88.31
2022-08-02T06:44:48.758Z,88.21
2022-08-02T06:45:46.120Z,87.92
2022-08-02T06:47:11.295Z,87.44
2022-08-02T06:47:45.763Z,87.53
2022-08-02T06:48:45.944Z,87.44
2022-08-02T06:49:52.327Z,87.73
2022-08-02T06:50:45.796Z,86.96
2022-08-02T06:51:45.756Z,87.09
2022-08-02T06:52:45.575Z,87.09
2022-08-02T06:53:45.770Z,87.09
2022-08-02T06:54:45.492Z,86.32
2022-08-02T06:55:45.578Z,85.94
2022-08-02T06:56:45.432Z,85.94
2022-08-02T06:57:45.592Z,85.55
2022-08-02T06:58:45.332Z,85.49
2022-08-02T06:59:45.401Z,85.59
2022-08-02T07:00:45.412Z,85.59
2022-08-02T07:01:45.265Z,85.01
2022-08-02T07:02:45.203Z,84.53
2022-08-02T07:03:45.430Z,85.01
2022-08-02T07:04:45.101Z,84.38
2022-08-02T07:05:45.164Z,83.89
2022-08-02T07:06:45.245Z,84.57
2022-08-02T07:07:44.990Z,84.19
2022-08-02T07:08:59.513Z,83.51
2022-08-02T07:09:56.984Z,83.03
2022-08-02T07:10:44.870Z,83.22
2022-08-02T07:11:45.082Z,82.54
2022-08-02T07:12:44.791Z,82.45
2022-08-02T07:13:44.891Z,82.00
2022-08-02T07:14:44.712Z,82.20
2022-08-02T07:15:49.131Z,82.20
2022-08-02T07:16:44.632Z,81.46
2022-08-02T07:17:44.591Z,81.75
2022-08-02T07:18:44.556Z,80.88
2022-08-02T07:19:44.933Z,81.37
2022-08-02T07:20:44.481Z,80.59
2022-08-02T07:21:55.891Z,79.52
2022-08-02T07:22:44.403Z,79.57
2022-08-02T07:23:44.384Z,79.47
2022-08-02T07:24:44.554Z,78.79
2022-08-02T07:26:02.590Z,78.59
2022-08-02T07:27:08.540Z,78.21
2022-08-02T07:27:44.215Z,78.31
2022-08-02T07:28:44.176Z,77.92
2022-08-02T07:29:46.340Z,78.02
2022-08-02T07:30:44.099Z,77.34
2022-08-02T07:31:44.414Z,78.21
2022-08-02T07:32:44.021Z,77.14
2022-08-02T07:33:47.047Z,77.53
2022-08-02T07:34:52.608Z,77.73
2022-08-02T07:35:43.991Z,78.21
2022-08-02T07:36:44.140Z,77.98
2022-08-02T07:37:54.898Z,78.08
2022-08-02T07:38:43.789Z,78.08
2022-08-02T07:39:44.443Z,78.56
2022-08-02T07:40:43.717Z,78.36
2022-08-02T07:41:43.965Z,78.66
2022-08-02T07:42:43.653Z,78.66
2022-08-02T07:43:43.780Z,78.66
2022-08-02T07:44:47.172Z,78.41
2022-08-02T07:45:45.881Z,78.41
2022-08-02T07:46:43.501Z,78.79
2022-08-02T07:47:43.599Z,78.69
2022-08-02T07:48:43.408Z,78.99
2022-08-02T07:49:43.620Z,78.89
2022-08-02T07:50:43.335Z,78.36
2022-08-02T07:51:43.291Z,78.79
2022-08-02T07:52:43.498Z,78.99
2022-08-02T07:53:50.854Z,78.59
2022-08-02T07:54:43.465Z,78.50
2022-08-02T07:55:43.143Z,78.21
2022-08-02T07:56:43.260Z,78.21
2022-08-02T07:57:46.501Z,78.11
2022-08-02T07:58:43.048Z,78.31
2022-08-02T07:59:43.277Z,78.41
2022-08-02T08:00:42.945Z,78.89
2022-08-02T08:01:46.162Z,78.69
2022-08-02T08:02:42.869Z,77.73
2022-08-02T08:03:43.103Z,78.02
2022-08-02T08:04:42.949Z,77.44
2022-08-02T08:05:42.913Z,77.37
2022-08-02T08:06:42.721Z,76.60
2022-08-02T08:07:42.925Z,76.41
2022-08-02T08:08:42.934Z,76.41
2022-08-02T08:09:42.607Z,75.96
2022-08-02T08:10:42.747Z,75.42
2022-08-02T08:11:42.528Z,73.77
2022-08-02T08:12:42.757Z,72.97
2022-08-02T08:13:42.459Z,70.67
2022-08-02T08:14:42.413Z,68.57
2022-08-02T08:15:42.574Z,65.98
2022-08-02T08:16:42.626Z,65.75
2022-08-02T08:17:42.587Z,63.39
2022-08-02T08:18:42.266Z,61.30
2022-08-02T08:19:51.374Z,59.90
2022-08-02T08:20:42.195Z,57.78
2022-08-02T08:21:42.413Z,54.71
2022-08-02T08:22:42.128Z,52.91
2022-08-02T08:23:42.224Z,51.56
2022-08-02T08:24:42.049Z,50.90
2022-08-02T08:25:42.161Z,49.95
2022-08-02T08:26:41.976Z,48.99
2022-08-02T08:27:42.247Z,48.13
2022-08-02T08:28:41.909Z,47.06
2022-08-02T08:29:42.061Z,45.90
2022-08-02T08:30:41.837Z,45.70
2022-08-02T08:31:41.825Z,44.94
2022-08-02T08:32:41.878Z,44.35
2022-08-02T08:33:41.935Z,44.06
2022-08-02T08:34:41.894Z,43.79
2022-08-02T08:35:41.665Z,43.22
2022-08-02T08:36:41.908Z,42.85
2022-08-02T08:37:41.831Z,41.39
2022-08-02T08:38:41.920Z,41.09
2022-08-02T08:39:56.301Z,40.82
2022-08-02T08:40:41.492Z,40.72
2022-08-02T08:41:41.733Z,40.63
2022-08-02T08:42:41.541Z,40.43
2022-08-02T08:43:41.393Z,40.13
2022-08-02T08:44:41.557Z,39.54
2022-08-02T08:45:41.323Z,39.26
2022-08-02T08:46:41.569Z,38.87
2022-08-02T08:47:41.259Z,39.26
2022-08-02T08:48:41.233Z,39.17
2022-08-02T08:49:52.323Z,39.18
2022-08-02T08:50:41.348Z,38.32
2022-08-02T08:51:41.404Z,37.87
2022-08-02T08:52:41.092Z,37.29
2022-08-02T08:53:41.297Z,36.91
2022-08-02T08:54:41.066Z,36.42
2022-08-02T08:55:41.226Z,36.00
2022-08-02T08:56:40.978Z,36.07
2022-08-02T08:57:41.240Z,36.46
2022-08-02T08:58:40.892Z,36.27
2022-08-02T08:59:40.868Z,36.66
2022-08-02T09:00:40.834Z,37.07
2022-08-02T09:01:49.786Z,36.30
2022-08-02T09:02:40.917Z,35.83
2022-08-02T09:03:40.872Z,35.15
2022-08-02T09:04:40.703Z,34.36
2022-08-02T09:05:40.681Z,33.98
2022-08-02T09:06:40.896Z,33.42
2022-08-02T09:07:40.601Z,33.34
2022-08-02T09:08:40.909Z,32.55
2022-08-02T09:09:40.545Z,32.35
2022-08-02T09:10:40.737Z,32.06
2022-08-02T09:11:40.477Z,32.37
2022-08-02T09:12:40.738Z,32.07
2022-08-02T09:13:46.102Z,31.97
2022-08-02T09:14:40.750Z,31.18
2022-08-02T09:15:40.372Z,31.68
2022-08-02T09:16:40.317Z,31.41
2022-08-02T09:17:40.287Z,31.01
2022-08-02T09:18:40.575Z,30.63
2022-08-02T09:19:46.197Z,30.53
2022-08-02T09:20:40.386Z,29.86
2022-08-02T09:21:40.170Z,29.58
2022-08-02T09:22:40.140Z,29.21
2022-08-02T09:23:40.421Z,28.83
2022-08-02T09:24:40.077Z,28.94
2022-08-02T09:25:40.429Z,28.15
2022-08-02T09:26:40.021Z,27.94
2022-08-02T09:27:40.230Z,27.92
2022-08-02T09:28:39.962Z,28.50
2022-08-02T09:30:06.020Z,28.89
2022-08-02T09:30:40.046Z,29.37
2022-08-02T09:31:42.769Z,29.06
2022-08-02T09:32:39.852Z,29.44
2022-08-02T09:33:39.819Z,29.74
2022-08-02T09:34:39.792Z,29.83
2022-08-02T09:36:07.355Z,30.22
2022-08-02T09:36:39.759Z,30.12
2022-08-02T09:37:39.894Z,30.12
2022-08-02T09:38:39.678Z,30.12
2022-08-02T09:39:39.661Z,29.44
2022-08-02T09:40:39.914Z,29.46
2022-08-02T09:41:39.594Z,29.27
2022-08-02T09:42:39.929Z,28.79
2022-08-02T09:43:39.536Z,28.52
2022-08-02T09:44:39.512Z,27.94
2022-08-02T09:45:39.744Z,27.96
2022-08-02T09:46:39.462Z,26.99
2022-08-02T09:47:40.582Z,26.90
2022-08-02T09:48:39.420Z,25.79
2022-08-02T09:49:39.605Z,25.81
2022-08-02T09:50:39.576Z,26.21
2022-08-02T09:51:39.327Z,26.01
2022-08-02T09:52:43.483Z,26.10
2022-08-02T09:53:39.264Z,25.62
2022-08-02T09:54:39.259Z,25.34
2022-08-02T09:55:39.510Z,24.93
2022-08-02T09:56:39.187Z,24.54
2022-08-02T09:57:39.423Z,24.65
2022-08-02T09:58:39.139Z,24.65
2022-08-02T09:59:39.233Z,25.13
2022-08-02T10:00:52.360Z,24.75
2022-08-02T10:01:39.295Z,24.26
2022-08-02T10:02:39.094Z,24.47
2022-08-02T10:03:39.258Z,23.68
2022-08-02T10:04:52.861Z,23.19
2022-08-02T10:05:50.164Z,23.57
2022-08-02T10:06:38.937Z,23.45
2022-08-02T10:07:38.929Z,24.13
2022-08-02T10:08:39.099Z,24.11
2022-08-02T10:09:43.055Z,24.14
2022-08-02T10:10:38.843Z,24.15
2022-08-02T10:11:39.114Z,23.57
2022-08-02T10:12:38.789Z,23.57
2022-08-02T10:13:38.956Z,23.37
2022-08-02T10:14:38.741Z,23.28
2022-08-02T10:15:38.937Z,22.99
2022-08-02T10:16:38.714Z,23.08
2022-08-02T10:17:38.950Z,22.80
2022-08-02T10:18:41.510Z,22.09
2022-08-02T10:20:00.825Z,22.20
2022-08-02T10:20:38.596Z,21.81
2022-08-02T10:21:39.641Z,22.31
2022-08-02T10:22:38.831Z,22.02
2022-08-02T10:23:39.712Z,22.03
2022-08-02T10:24:38.798Z,21.83
2022-08-02T10:25:38.478Z,21.34
2022-08-02T10:26:38.710Z,21.56
2022-08-02T10:28:03.750Z,21.06
2022-08-02T10:28:38.728Z,20.87
2022-08-02T10:29:53.769Z,19.96
2022-08-02T10:30:38.359Z,19.85
2022-08-02T10:31:38.545Z,20.14
2022-08-02T10:32:38.325Z,20.25
2022-08-02T10:33:38.452Z,20.53
2022-08-02T10:34:38.409Z,21.12
2022-08-02T10:35:38.238Z,21.19
2022-08-02T10:36:38.215Z,21.55
2022-08-02T10:37:38.275Z,23.02
2022-08-02T10:38:38.212Z,23.69
2022-08-02T10:39:38.302Z,24.75
2022-08-02T10:40:38.116Z,26.10
2022-08-02T10:41:38.089Z,26.87
2022-08-02T10:42:38.061Z,27.73
2022-08-02T10:43:38.115Z,28.89
2022-08-02T10:44:38.171Z,28.70
2022-08-02T10:45:38.130Z,28.70
2022-08-02T10:46:37.960Z,28.93
2022-08-02T10:47:37.930Z,27.75
2022-08-02T10:48:37.947Z,27.50
2022-08-02T10:49:39.624Z,26.93
2022-08-02T10:50:37.847Z,25.74
2022-08-02T10:51:38.583Z,25.27
2022-08-02T10:52:37.797Z,25.49
2022-08-02T10:53:37.771Z,25.20
2022-08-02T10:54:37.765Z,24.20
2022-08-02T10:55:37.794Z,24.21
2022-08-02T10:56:37.724Z,23.93
2022-08-02T10:57:37.806Z,23.63
2022-08-02T10:58:37.812Z,23.83
2022-08-02T10:59:37.613Z,23.91
2022-08-02T11:00:37.881Z,23.91
2022-08-02T11:01:38.926Z,23.54
2022-08-02T11:02:37.635Z,23.35
2022-08-02T11:03:39.629Z,23.05
2022-08-02T11:04:37.484Z,22.05
2022-08-02T11:05:42.212Z,22.17
2022-08-02T11:06:37.430Z,22.27
2022-08-02T11:07:37.490Z,22.56
2022-08-02T11:08:37.394Z,21.98
2022-08-02T11:09:37.481Z,21.98
2022-08-02T11:10:37.562Z,21.59
2022-08-02T11:11:53.495Z,21.50
2022-08-02T11:12:37.288Z,21.30
2022-08-02T11:13:37.330Z,21.01
2022-08-02T11:14:37.374Z,21.42
2022-08-02T11:15:37.253Z,21.01
2022-08-02T11:16:37.347Z,20.81
2022-08-02T11:17:37.886Z,20.92
2022-08-02T11:18:37.341Z,20.83
2022-08-02T11:19:37.119Z,20.53
2022-08-02T11:20:37.182Z,20.64
2022-08-02T11:21:37.071Z,20.34
2022-08-02T11:22:37.054Z,19.85
2022-08-02T11:23:44.635Z,20.06
2022-08-02T11:24:37.004Z,19.77
2022-08-02T11:26:03.243Z,19.47
2022-08-02T11:26:36.956Z,19.37
2022-08-02T11:27:36.935Z,19.17
2022-08-02T11:28:37.010Z,19.58
2022-08-02T11:29:38.566Z,19.18
2022-08-02T11:30:37.024Z,19.38
2022-08-02T11:31:36.848Z,19.40
2022-08-02T11:32:37.047Z,18.60
2022-08-02T11:33:36.819Z,18.20
2022-08-02T11:34:38.283Z,17.30
2022-08-02T11:35:36.911Z,18.41
2022-08-02T11:36:36.859Z,17.40
2022-08-02T11:37:36.711Z,17.30
2022-08-02T11:38:36.681Z,17.10
2022-08-02T11:39:36.675Z,17.10
2022-08-02T11:40:36.688Z,16.99
2022-08-02T11:41:46.058Z,17.10
2022-08-02T11:42:36.596Z,17.10
2022-08-02T11:43:36.705Z,17.11
2022-08-02T11:44:36.715Z,16.21
2022-08-02T11:45:36.579Z,15.90
2022-08-02T11:46:36.742Z,16.19
2022-08-02T11:47:36.506Z,16.19
2022-08-02T11:48:37.590Z,16.60
2022-08-02T11:49:36.530Z,16.50
2022-08-02T11:50:36.491Z,16.71
2022-08-02T11:51:57.457Z,16.41
2022-08-02T11:52:36.370Z,15.51
2022-08-02T11:53:36.387Z,15.50
2022-08-02T11:54:36.376Z,15.80
2022-08-02T11:55:36.392Z,15.80
2022-08-02T11:56:36.318Z,16.01
2022-08-02T11:58:01.764Z,15.61
2022-08-02T11:58:36.408Z,15.61
2022-08-02T11:59:36.276Z,15.62
2022-08-02T12:00:36.435Z,15.33
2022-08-02T12:01:44.834Z,15.12
2022-08-02T12:02:36.160Z,14.52
2022-08-02T12:03:36.339Z,15.12
2022-08-02T12:04:36.117Z,15.23
2022-08-02T12:06:05.470Z,14.93
2022-08-02T12:06:36.091Z,14.12
2022-08-02T12:07:36.522Z,14.32
2022-08-02T12:08:36.028Z,14.32
2022-08-02T12:09:39.317Z,13.61
2022-08-02T12:10:35.981Z,13.81
2022-08-02T12:11:38.861Z,14.52
2022-08-02T12:12:36.299Z,14.11
2022-08-02T12:13:35.943Z,14.30
2022-08-02T12:14:36.117Z,14.60
2022-08-02T12:15:35.879Z,14.40
2022-08-02T12:16:35.926Z,14.60
2022-08-02T12:17:35.853Z,14.71
2022-08-02T12:18:35.834Z,15.12
2022-08-02T12:19:35.789Z,14.73
2022-08-02T12:20:35.956Z,14.53
2022-08-02T12:21:35.749Z,14.42
2022-08-02T12:22:38.878Z,13.93
2022-08-02T12:23:35.700Z,13.82
2022-08-02T12:24:36.953Z,13.32
2022-08-02T12:25:35.955Z,12.71
2022-08-02T12:26:35.638Z,13.13
2022-08-02T12:27:35.693Z,13.64
2022-08-02T12:28:35.594Z,13.24
2022-08-02T12:29:57.628Z,12.52
2022-08-02T12:30:35.931Z,12.83
2022-08-02T12:31:35.580Z,13.02
2022-08-02T12:32:35.523Z,13.03
2022-08-02T12:33:39.363Z,13.23
2022-08-02T12:34:35.489Z,12.63
2022-08-02T12:35:35.448Z,12.52
2022-08-02T12:36:35.450Z,12.93
2022-08-02T12:37:35.574Z,13.24
2022-08-02T12:38:35.394Z,13.24
2022-08-02T12:39:36.605Z,12.63
2022-08-02T12:40:35.409Z,12.53
2022-08-02T12:41:37.509Z,12.54
2022-08-02T12:42:35.324Z,12.64
2022-08-02T12:43:35.408Z,12.45
2022-08-02T12:44:35.272Z,12.05
2022-08-02T12:45:41.220Z,12.25
2022-08-02T12:46:41.832Z,11.75
2022-08-02T12:47:36.079Z,11.44
2022-08-02T12:48:37.311Z,11.24
2022-08-02T12:49:35.168Z,11.04
2022-08-02T12:50:35.247Z,10.74
2022-08-02T12:51:54.821Z,10.64
2022-08-02T12:52:35.095Z,11.44
2022-08-02T12:53:35.341Z,11.15
2022-08-02T12:54:36.074Z,11.03
2022-08-02T12:56:01.129Z,10.52